Skunkhollow, Arkansas
Current Conditions -  °F | °C
As of 1:23 PM on Monday 22 Dec 2014 (Local Time) from KLRF Reporting Station
Overcast Overcast  
Wind Chill: 54°   Ceiling: 600
Heat Index: 54°   Visibility: 10mi
Dew Point: 52°   Wind: 5mph
Humidity: 94%   Direction: 160°SSE
Pressure: 29.59"   Gusts: NA
Location:  35.0822°N, 92.366°W
Report Text: KLRF 221923Z AUTO 16004KT 10SM OVC006 12/11 A2959 RMK AO2
Loading
Personal Weather Stations






























Interactive Weather Map New forecast layout! Learn more

10-Day Weather Forecast

Advertisements
Track Severe Weather on mobile